createdAt,value
2022-09-14T04:01:32.817Z,2.38
2022-09-14T04:03:59.599Z,2.80
2022-09-14T04:06:26.337Z,2.75
2022-09-14T04:08:55.707Z,3.17
2022-09-14T04:11:24.356Z,2.50
2022-09-14T04:13:52.330Z,2.83
2022-09-14T04:16:21.073Z,2.45
2022-09-14T04:18:48.722Z,2.30
2022-09-14T04:21:19.437Z,2.70
2022-09-14T04:24:10.653Z,2.47
2022-09-14T04:26:34.345Z,1.80
2022-09-14T04:29:01.136Z,2.35
2022-09-14T04:31:27.953Z,2.75
2022-09-14T04:33:57.057Z,2.58
2022-09-14T04:36:28.402Z,3.22
2022-09-14T04:38:57.574Z,3.05
2022-09-14T04:41:24.563Z,2.85
2022-09-14T04:43:52.620Z,3.00
2022-09-14T04:46:21.940Z,3.00
2022-09-14T04:48:49.459Z,3.35
2022-09-14T04:51:21.700Z,3.33
2022-09-14T04:53:51.104Z,3.55
2022-09-14T04:56:19.607Z,3.20
2022-09-14T04:58:51.394Z,3.35
2022-09-14T05:01:21.384Z,3.15
2022-09-14T05:03:48.510Z,3.30
2022-09-14T05:06:17.987Z,2.58
2022-09-14T05:08:45.017Z,2.70
2022-09-14T05:11:16.870Z,3.25
2022-09-14T05:13:48.941Z,2.60
2022-09-14T05:16:22.299Z,2.67
2022-09-14T05:18:50.562Z,2.30
2022-09-14T05:21:19.386Z,2.80
2022-09-14T05:23:47.251Z,2.72
2022-09-14T05:26:14.833Z,2.10
2022-09-14T05:28:41.785Z,2.72
2022-09-14T05:31:11.062Z,2.53
2022-09-14T05:33:37.878Z,2.10
2022-09-14T05:36:07.404Z,2.25
2022-09-14T05:38:36.715Z,2.20
2022-09-14T05:41:05.082Z,2.47
2022-09-14T05:43:32.622Z,3.13
2022-09-14T05:46:08.124Z,2.03
2022-09-14T05:48:36.232Z,1.77
2022-09-14T05:51:15.789Z,1.60
2022-09-14T05:53:49.931Z,2.10
2022-09-14T05:56:18.116Z,1.88
2022-09-14T05:58:45.319Z,2.53
2022-09-14T06:01:14.873Z,2.67
2022-09-14T06:03:42.553Z,1.77
2022-09-14T06:06:10.671Z,1.95
2022-09-14T06:08:38.041Z,2.00
2022-09-14T06:11:08.533Z,1.40
2022-09-14T06:13:35.728Z,1.23
2022-09-14T06:16:17.929Z,1.20
2022-09-14T06:18:45.960Z,1.92
2022-09-14T06:21:16.888Z,1.20
2022-09-14T06:23:44.479Z,1.23
2022-09-14T06:26:11.625Z,1.90
2022-09-14T06:28:38.544Z,1.58
2022-09-14T06:31:07.733Z,1.23
2022-09-14T06:33:35.525Z,1.45
2022-09-14T06:36:09.750Z,1.48
2022-09-14T06:38:36.486Z,1.75
2022-09-14T06:41:06.497Z,1.60
2022-09-14T06:43:36.045Z,1.20
2022-09-14T06:46:04.235Z,1.05
2022-09-14T06:48:37.243Z,1.02
2022-09-14T06:51:20.391Z,1.23
2022-09-14T06:53:48.703Z,1.60
2022-09-14T06:56:16.418Z,1.38
2022-09-14T06:58:44.242Z,1.20
2022-09-14T07:01:13.094Z,1.25
2022-09-14T07:03:40.185Z,1.50
2022-09-14T07:06:12.931Z,1.67
2022-09-14T07:08:40.278Z,2.08
2022-09-14T07:11:08.859Z,1.02
2022-09-14T07:13:36.067Z,1.60
2022-09-14T07:16:03.595Z,1.50
2022-09-14T07:18:34.077Z,1.10
2022-09-14T07:21:05.749Z,1.83
2022-09-14T07:23:35.141Z,1.33
2022-09-14T07:26:08.116Z,1.20
2022-09-14T07:28:36.160Z,1.20
2022-09-14T07:31:03.905Z,0.90
2022-09-14T07:33:30.824Z,1.40
2022-09-14T07:36:08.515Z,1.10
2022-09-14T07:38:57.788Z,1.77
2022-09-14T07:41:24.876Z,1.58
2022-09-14T07:43:53.280Z,1.05
2022-09-14T07:46:21.798Z,1.58
2022-09-14T07:48:49.590Z,2.15
2022-09-14T07:51:16.587Z,1.63
2022-09-14T07:53:43.801Z,1.52
2022-09-14T07:56:12.152Z,1.60
2022-09-14T07:58:39.480Z,1.40
2022-09-14T08:01:08.607Z,1.40
2022-09-14T08:03:40.235Z,1.85
2022-09-14T08:06:22.701Z,1.47
2022-09-14T08:08:51.702Z,1.75
2022-09-14T08:11:21.356Z,1.73
2022-09-14T08:13:59.936Z,2.08
2022-09-14T08:16:28.985Z,1.25
2022-09-14T08:18:59.028Z,1.85
2022-09-14T08:21:27.863Z,1.65
2022-09-14T08:23:54.965Z,1.77
2022-09-14T08:26:23.439Z,1.52
2022-09-14T08:28:51.673Z,1.30
2022-09-14T08:31:21.311Z,0.90
2022-09-14T08:33:57.461Z,1.80
2022-09-14T08:36:27.239Z,1.65
2022-09-14T08:38:54.682Z,1.67
2022-09-14T08:41:39.816Z,0.85
2022-09-14T08:44:18.640Z,1.25
2022-09-14T08:46:49.714Z,1.20
2022-09-14T08:49:39.397Z,0.98
2022-09-14T08:52:09.736Z,1.50
2022-09-14T08:54:37.613Z,1.70
2022-09-14T08:57:18.348Z,1.15
2022-09-14T09:00:10.490Z,1.70
2022-09-14T09:02:51.550Z,1.23
2022-09-14T09:05:38.180Z,1.70
2022-09-14T09:08:28.188Z,1.23
2022-09-14T09:10:56.188Z,1.27
2022-09-14T09:13:28.847Z,1.20
2022-09-14T09:15:59.356Z,1.45
2022-09-14T09:18:47.996Z,1.00
2022-09-14T09:21:25.385Z,1.40
2022-09-14T09:23:55.128Z,1.65
2022-09-14T09:26:30.928Z,0.98
2022-09-14T09:29:03.140Z,1.73
2022-09-14T09:31:47.542Z,1.73
2022-09-14T09:34:16.580Z,1.35
2022-09-14T09:36:47.821Z,1.55
2022-09-14T09:39:15.711Z,1.40
2022-09-14T09:41:50.980Z,1.63
2022-09-14T09:44:17.724Z,2.30
2022-09-14T09:46:54.468Z,1.83
2022-09-14T09:49:23.132Z,1.92
2022-09-14T09:51:51.273Z,1.40
2022-09-14T09:54:23.785Z,1.35
2022-09-14T09:59:32.799Z,1.48
2022-09-14T10:02:31.369Z,1.27
2022-09-14T10:05:10.263Z,1.20
2022-09-14T10:07:43.120Z,1.20
2022-09-14T10:10:15.079Z,1.30
2022-09-14T10:13:18.213Z,0.88
2022-09-14T10:18:13.482Z,1.60
2022-09-14T10:20:42.240Z,1.15
2022-09-14T10:23:30.989Z,1.63
2022-09-14T10:26:19.340Z,1.45
2022-09-14T10:28:48.182Z,1.23
2022-09-14T10:31:20.644Z,1.27
2022-09-14T10:36:37.373Z,1.23
2022-09-14T10:39:12.910Z,1.20
2022-09-14T10:41:58.290Z,1.15
2022-09-14T10:44:34.051Z,1.80
2022-09-14T10:47:18.827Z,1.17
2022-09-14T10:50:04.508Z,1.50
2022-09-14T10:52:49.472Z,0.90
2022-09-14T10:55:34.318Z,1.00
2022-09-14T10:58:07.687Z,1.13
2022-09-14T11:00:48.991Z,1.05
2022-09-14T11:03:24.486Z,0.90
2022-09-14T11:06:21.385Z,1.30
2022-09-14T11:09:06.912Z,1.55
2022-09-14T11:11:58.707Z,1.35
2022-09-14T11:14:49.662Z,1.58
2022-09-14T11:17:42.837Z,1.90
2022-09-14T11:20:26.448Z,2.00
2022-09-14T11:23:04.846Z,2.13
2022-09-14T11:25:41.600Z,1.00
2022-09-14T11:28:21.758Z,1.33
2022-09-14T11:30:55.562Z,0.90
2022-09-14T11:33:30.880Z,1.60
2022-09-14T11:36:21.589Z,2.45
2022-09-14T11:39:06.073Z,1.58
2022-09-14T11:41:45.062Z,1.58
2022-09-14T11:44:31.060Z,1.27
2022-09-14T11:47:03.970Z,1.80
2022-09-14T11:49:34.643Z,1.48
2022-09-14T11:52:31.483Z,1.48
2022-09-14T11:54:59.895Z,1.40
2022-09-14T11:57:32.289Z,1.35
2022-09-14T12:02:27.616Z,1.30
2022-09-14T12:05:06.848Z,1.55
2022-09-14T12:07:39.832Z,1.55
2022-09-14T12:10:18.564Z,1.13
2022-09-14T12:12:46.140Z,1.15
2022-09-14T12:15:26.931Z,1.20
2022-09-14T12:17:55.183Z,1.00
2022-09-14T12:20:30.159Z,1.60
2022-09-14T12:23:06.557Z,1.10
2022-09-14T12:25:34.490Z,1.50
2022-09-14T12:28:01.485Z,1.05
2022-09-14T12:30:50.224Z,1.00
2022-09-14T12:33:32.386Z,1.00
2022-09-14T12:36:06.857Z,1.45
2022-09-14T12:38:55.157Z,1.10
2022-09-14T12:41:21.815Z,0.77
2022-09-14T12:43:51.674Z,1.00
2022-09-14T12:46:21.627Z,1.17
2022-09-14T12:48:48.568Z,1.05
2022-09-14T12:51:33.279Z,1.10
2022-09-14T12:54:08.991Z,0.73
2022-09-14T12:56:35.778Z,1.00
2022-09-14T12:59:10.170Z,1.33
2022-09-14T13:02:13.817Z,1.38
2022-09-14T13:04:42.204Z,1.27
2022-09-14T13:07:20.140Z,1.10
2022-09-14T13:09:52.435Z,1.02
2022-09-14T13:12:37.502Z,0.88
2022-09-14T13:15:07.451Z,1.10
2022-09-14T13:17:34.240Z,0.95
2022-09-14T13:20:05.253Z,0.80
2022-09-14T13:22:33.496Z,1.13
2022-09-14T13:25:03.731Z,0.88
2022-09-14T13:27:36.760Z,1.13
2022-09-14T13:30:07.495Z,1.00
2022-09-14T13:32:40.012Z,0.82
2022-09-14T13:37:33.763Z,0.85
2022-09-14T13:40:00.809Z,0.90
2022-09-14T13:42:27.889Z,1.13
2022-09-14T13:44:54.901Z,1.30
2022-09-14T13:47:26.075Z,1.08
2022-09-14T13:49:54.489Z,1.10
2022-09-14T13:52:31.000Z,0.88
2022-09-14T13:55:18.585Z,1.23
2022-09-14T13:58:05.343Z,0.90
2022-09-14T14:00:34.939Z,1.70
2022-09-14T14:03:05.384Z,0.98
2022-09-14T14:05:35.179Z,1.33
2022-09-14T14:08:04.953Z,1.33
2022-09-14T14:10:36.523Z,1.00
2022-09-14T14:13:03.803Z,1.23
2022-09-14T14:16:17.602Z,1.38
2022-09-14T14:18:52.188Z,1.23
2022-09-14T14:21:27.503Z,0.55
2022-09-14T14:24:19.307Z,1.08
2022-09-14T14:26:50.973Z,0.97
2022-09-14T14:29:19.067Z,1.25
2022-09-14T14:31:46.289Z,0.93
2022-09-14T14:34:22.143Z,0.95
2022-09-14T14:36:50.239Z,1.00
2022-09-14T14:39:19.191Z,1.20
2022-09-14T14:41:46.638Z,0.82
2022-09-14T14:44:18.146Z,1.20
2022-09-14T14:46:48.222Z,1.23
2022-09-14T14:49:17.219Z,1.05
2022-09-14T14:51:44.549Z,1.30
2022-09-14T14:54:11.666Z,1.13
2022-09-14T14:56:39.183Z,1.15
2022-09-14T14:59:20.804Z,1.10
2022-09-14T15:01:52.625Z,1.25
2022-09-14T15:04:20.020Z,1.10
2022-09-14T15:06:47.393Z,1.27
2022-09-14T15:09:17.138Z,0.93
2022-09-14T15:11:44.529Z,1.23
2022-09-14T15:14:15.977Z,0.90
2022-09-14T15:16:43.698Z,1.73
2022-09-14T15:19:11.222Z,1.20
2022-09-14T15:21:39.287Z,0.80
2022-09-14T15:24:06.605Z,1.50
2022-09-14T15:26:34.019Z,1.05
2022-09-14T15:29:01.536Z,1.60
2022-09-14T15:31:28.921Z,1.30
2022-09-14T15:33:55.744Z,1.05
2022-09-14T15:36:51.070Z,1.30
2022-09-14T15:39:20.976Z,1.15
2022-09-14T15:41:47.757Z,0.80
2022-09-14T15:44:15.560Z,1.00
2022-09-14T15:46:44.504Z,1.15
2022-09-14T15:49:14.340Z,1.20
2022-09-14T15:51:45.471Z,1.30
2022-09-14T15:54:12.565Z,1.53
2022-09-14T15:56:39.343Z,1.40
2022-09-14T15:59:06.342Z,1.55
2022-09-14T16:01:33.367Z,1.10
2022-09-14T16:04:02.951Z,1.30
2022-09-14T16:06:30.726Z,1.63
2022-09-14T16:08:58.005Z,1.00
2022-09-14T16:11:24.971Z,1.35
2022-09-14T16:13:52.353Z,1.20
2022-09-14T16:16:20.586Z,1.23
2022-09-14T16:18:49.851Z,1.52
2022-09-14T16:21:25.693Z,1.38
2022-09-14T16:23:57.752Z,1.00
2022-09-14T16:26:32.125Z,0.90
2022-09-14T16:28:59.867Z,1.25
2022-09-14T16:31:27.858Z,1.33
2022-09-14T16:33:58.768Z,1.40
2022-09-14T16:36:27.959Z,1.83
2022-09-14T16:39:00.490Z,1.33
2022-09-14T16:41:28.577Z,1.48
2022-09-14T16:44:00.473Z,1.10
2022-09-14T16:46:29.003Z,1.60
2022-09-14T16:48:56.287Z,1.30
2022-09-14T16:51:25.077Z,1.20
2022-09-14T16:53:52.811Z,1.50
2022-09-14T16:56:25.100Z,1.38
2022-09-14T16:58:54.193Z,1.08
2022-09-14T17:01:24.221Z,1.10
2022-09-14T17:03:52.989Z,1.00
2022-09-14T17:06:23.467Z,1.05
2022-09-14T17:08:52.178Z,1.27
2022-09-14T17:11:18.909Z,1.13
2022-09-14T17:13:46.389Z,1.25
2022-09-14T17:16:16.049Z,1.20
2022-09-14T17:18:45.156Z,1.15
2022-09-14T17:21:14.184Z,1.27
2022-09-14T17:23:41.861Z,1.05
2022-09-14T17:26:10.567Z,1.30
2022-09-14T17:28:38.706Z,1.60
2022-09-14T17:31:07.493Z,1.40
2022-09-14T17:33:35.707Z,1.35
2022-09-14T17:36:04.485Z,1.60
2022-09-14T17:38:36.875Z,1.13
2022-09-14T17:41:04.973Z,1.42
2022-09-14T17:43:33.408Z,1.48
2022-09-14T17:46:00.371Z,1.52
2022-09-14T17:48:28.086Z,1.50
2022-09-14T17:50:55.477Z,1.92
2022-09-14T17:53:22.614Z,1.00
2022-09-14T17:55:49.377Z,1.30
2022-09-14T17:58:19.632Z,1.30
2022-09-14T18:00:46.760Z,1.02
2022-09-14T18:03:13.640Z,2.22
2022-09-14T18:05:40.431Z,1.85
2022-09-14T18:08:07.604Z,1.35
2022-09-14T18:10:36.346Z,2.20
2022-09-14T18:13:03.213Z,1.83
2022-09-14T18:15:31.102Z,1.52
2022-09-14T18:17:58.070Z,1.77
2022-09-14T18:20:24.856Z,1.85
2022-09-14T18:22:52.678Z,1.15
2022-09-14T18:25:19.439Z,2.20
2022-09-14T18:27:46.166Z,2.13
2022-09-14T18:30:13.583Z,1.33
2022-09-14T18:32:40.331Z,1.45
2022-09-14T18:35:08.161Z,1.25
2022-09-14T18:37:34.943Z,1.50
2022-09-14T18:40:01.982Z,1.80
2022-09-14T18:42:28.795Z,1.40
2022-09-14T18:44:56.392Z,1.58
2022-09-14T18:47:23.263Z,1.38
2022-09-14T18:49:50.275Z,1.42
2022-09-14T18:52:19.967Z,1.48
2022-09-14T18:54:46.769Z,2.00
2022-09-14T18:57:14.566Z,1.13
2022-09-14T18:59:41.330Z,1.70
2022-09-14T19:02:10.516Z,1.45
2022-09-14T19:04:38.214Z,1.45
2022-09-14T19:07:05.728Z,1.75
2022-09-14T19:09:32.877Z,1.55
2022-09-14T19:11:59.612Z,2.05
2022-09-14T19:14:26.480Z,1.25
2022-09-14T19:16:57.465Z,1.60
2022-09-14T19:19:26.334Z,1.33
2022-09-14T19:21:54.115Z,1.55
2022-09-14T19:24:20.989Z,1.50
2022-09-14T19:26:50.572Z,1.67
2022-09-14T19:29:20.243Z,1.83
2022-09-14T19:31:51.068Z,2.53
2022-09-14T19:34:19.735Z,1.75
2022-09-14T19:36:46.545Z,1.83
2022-09-14T19:39:13.903Z,1.65
2022-09-14T19:41:40.648Z,2.05
2022-09-14T19:44:08.014Z,1.80
2022-09-14T19:46:36.443Z,2.58
2022-09-14T19:49:03.274Z,2.17
2022-09-14T19:51:33.069Z,2.13
2022-09-14T19:54:00.525Z,1.80
2022-09-14T19:56:29.997Z,1.92
2022-09-14T19:59:01.453Z,2.50
2022-09-14T20:01:30.167Z,1.85
2022-09-14T20:03:57.513Z,2.53
2022-09-14T20:06:29.624Z,1.58
2022-09-14T20:08:58.512Z,2.17
2022-09-14T20:11:27.579Z,1.95
2022-09-14T20:13:55.820Z,2.33
2022-09-14T20:16:34.351Z,1.98
2022-09-14T20:19:06.152Z,1.85
2022-09-14T20:21:32.969Z,1.98
2022-09-14T20:24:17.715Z,1.67
2022-09-14T20:26:46.448Z,1.63
2022-09-14T20:29:14.419Z,2.08
2022-09-14T20:31:41.372Z,1.75
2022-09-14T20:34:08.168Z,1.50
2022-09-14T20:36:34.943Z,1.85
2022-09-14T20:39:03.349Z,2.22
2022-09-14T20:41:31.975Z,2.20
2022-09-14T20:43:58.813Z,2.38
2022-09-14T20:46:28.281Z,2.88
2022-09-14T20:48:55.322Z,2.25
2022-09-14T20:51:23.896Z,2.97
2022-09-14T20:53:51.201Z,2.83
2022-09-14T20:56:25.983Z,2.95
2022-09-14T20:58:57.974Z,2.90
2022-09-14T21:01:27.412Z,3.17
2022-09-14T21:03:54.645Z,2.88
2022-09-14T21:06:25.677Z,3.65
2022-09-14T21:08:52.829Z,3.08
2022-09-14T21:11:25.052Z,3.33
2022-09-14T21:13:53.846Z,3.38
2022-09-14T21:16:24.611Z,4.93
2022-09-14T21:19:00.196Z,3.28
2022-09-14T21:21:27.127Z,4.10
2022-09-14T21:23:55.987Z,4.13
2022-09-14T21:26:23.182Z,3.72
2022-09-14T21:28:58.387Z,4.10
2022-09-14T21:31:26.182Z,4.18
2022-09-14T21:33:55.400Z,3.50
2022-09-14T21:36:26.225Z,2.97
2022-09-14T21:39:00.358Z,4.05
2022-09-14T21:41:30.026Z,3.47
2022-09-14T21:43:57.313Z,2.83
2022-09-14T21:46:25.166Z,3.35
2022-09-14T21:48:53.134Z,3.05
2022-09-14T21:51:29.181Z,3.42
2022-09-14T21:53:59.144Z,3.55
2022-09-14T21:56:31.977Z,2.65
2022-09-14T21:59:01.080Z,2.90
2022-09-14T22:01:29.419Z,3.70
2022-09-14T22:03:57.733Z,3.13
2022-09-14T22:06:27.348Z,2.65
2022-09-14T22:08:55.060Z,3.88
2022-09-14T22:11:24.788Z,2.78
2022-09-14T22:13:59.808Z,3.20
2022-09-14T22:16:28.081Z,3.00
2022-09-14T22:18:57.332Z,3.50
2022-09-14T22:21:27.100Z,3.72
2022-09-14T22:23:56.401Z,2.95
2022-09-14T22:26:24.559Z,3.67
2022-09-14T22:28:53.649Z,3.15
2022-09-14T22:31:22.949Z,3.65
2022-09-14T22:33:51.081Z,3.75
2022-09-14T22:36:18.181Z,2.35
2022-09-14T22:38:46.497Z,2.42
2022-09-14T22:41:19.619Z,3.30
2022-09-14T22:43:47.753Z,3.85
2022-09-14T22:46:16.415Z,3.72
2022-09-14T22:48:43.345Z,4.85
2022-09-14T22:51:16.332Z,4.40
2022-09-14T22:53:43.257Z,4.10
2022-09-14T22:56:17.826Z,3.05
2022-09-14T22:58:45.668Z,4.05
2022-09-14T23:01:15.607Z,3.78
2022-09-14T23:03:42.962Z,3.40
2022-09-14T23:06:10.719Z,2.90
2022-09-14T23:08:37.609Z,3.53
2022-09-14T23:11:06.214Z,3.45
2022-09-14T23:13:35.744Z,3.40
2022-09-14T23:16:09.099Z,2.50
2022-09-14T23:18:35.798Z,3.08
2022-09-14T23:21:03.521Z,3.50
2022-09-14T23:23:30.590Z,3.55
2022-09-14T23:26:05.563Z,4.18
2022-09-14T23:28:32.868Z,3.05
2022-09-14T23:31:03.121Z,3.17
2022-09-14T23:33:30.489Z,3.22
2022-09-14T23:35:57.521Z,3.22
2022-09-14T23:38:25.039Z,2.40
2022-09-14T23:40:52.221Z,3.22
2022-09-14T23:43:19.659Z,3.03
2022-09-14T23:45:47.574Z,3.25
2022-09-14T23:48:15.181Z,3.40
2022-09-14T23:50:42.139Z,3.83
2022-09-14T23:53:09.257Z,4.07
2022-09-14T23:55:36.002Z,3.00
2022-09-14T23:58:02.993Z,3.13
